Time;durP1;ratioP1;P1;durP2;ratioP2;P2;SDS_P1;SDS_P2;PMS_P1;PMS_P2;Temp;Humidity;BMP_temperature;BMP_pressure;BME280_temperature;BME280_humidity;BME280_pressure;Samples;Min_cycle;Max_cycle;Signal;HPM_P1;HPM_P2
2024/04/17 00:00:16;;;;;;;0.40;0.40;;;;;;;6.77;88.30;98396.63;5417888;26;20010;-63
2024/04/17 00:02:47;;;;;;;0.40;0.40;;;;;;;6.66;88.08;98392.47;5419397;26;20000;-63
2024/04/17 00:05:17;;;;;;;1.15;0.82;;;;;;;6.61;88.21;98391.63;5419500;26;20015;-63
2024/04/17 00:07:48;;;;;;;0.57;0.57;;;;;;;6.64;88.46;98391.63;5419612;26;20465;-63
2024/04/17 00:10:16;;;;;;;0.20;0.20;;;;;;;6.64;88.09;98391.63;5419417;26;20000;-63
2024/04/17 00:12:47;;;;;;;0.60;0.60;;;;;;;6.64;88.45;98380.63;5419223;26;20004;-63
2024/04/17 00:15:15;;;;;;;0.40;0.40;;;;;;;6.53;88.11;98369.69;5419386;26;20007;-63
2024/04/17 00:17:45;;;;;;;1.30;1.20;;;;;;;6.55;88.30;98376.44;5417807;26;20022;-63
2024/04/17 00:20:13;;;;;;;1.48;1.38;;;;;;;6.55;87.91;98370.56;5419281;26;20004;-63
2024/04/17 00:22:46;;;;;;;0.73;0.73;;;;;;;6.47;88.00;98374.81;5417791;26;20069;-63
2024/04/17 00:25:15;;;;;;;0.52;0.52;;;;;;;6.46;87.98;98361.31;5418754;26;20015;-64
2024/04/17 00:27:45;;;;;;;0.50;0.50;;;;;;;6.52;88.46;98361.28;5419459;26;20035;-64
2024/04/17 00:30:13;;;;;;;0.47;0.47;;;;;;;6.48;87.93;98344.41;5417838;26;20007;-63
2024/04/17 00:32:43;;;;;;;0.40;0.40;;;;;;;6.47;88.31;98347.81;5418655;26;20007;-63
2024/04/17 00:35:12;;;;;;;0.73;0.73;;;;;;;6.50;88.61;98337.63;5418942;26;20054;-63
2024/04/17 00:37:42;;;;;;;1.23;1.13;;;;;;;6.56;88.61;98342.66;5419203;26;20011;-63
2024/04/17 00:40:13;;;;;;;1.27;1.17;;;;;;;6.52;88.69;98332.56;5419082;26;20342;-63
2024/04/17 00:42:44;;;;;;;1.35;1.20;;;;;;;6.54;88.85;98334.22;5418964;26;20076;-63
2024/04/17 00:45:12;;;;;;;1.95;1.75;;;;;;;6.53;88.85;98327.47;5418704;26;19999;-63
2024/04/17 00:47:43;;;;;;;0.40;0.40;;;;;;;6.58;88.72;98320.69;5418787;26;20068;-63
2024/04/17 00:50:12;;;;;;;0.95;0.95;;;;;;;6.65;88.75;98312.19;5418954;26;20003;-63
2024/04/17 00:52:43;;;;;;;1.98;1.63;;;;;;;6.79;89.14;98326.47;5418688;26;20403;-63
2024/04/17 00:55:14;;;;;;;0.40;0.40;;;;;;;6.92;89.48;98315.34;5418643;26;20018;-63
2024/04/17 00:57:46;;;;;;;1.83;1.25;;;;;;;6.99;89.30;98316.97;5418681;26;20003;-63
2024/04/17 01:00:14;;;;;;;0.63;0.60;;;;;;;6.99;88.90;98306.84;5418845;26;20446;-63
2024/04/17 01:02:45;;;;;;;0.40;0.40;;;;;;;6.87;89.30;98301.88;5418648;26;20457;-63
2024/04/17 01:05:13;;;;;;;1.15;1.05;;;;;;;6.82;88.70;98299.38;5418941;26;20446;-63
2024/04/17 01:07:43;;;;;;;0.47;0.47;;;;;;;6.79;88.97;98298.56;5418533;26;20075;-63
2024/04/17 01:10:15;;;;;;;0.40;0.40;;;;;;;6.67;88.76;98280.06;5418632;26;20329;-63
2024/04/17 01:12:46;;;;;;;0.82;0.82;;;;;;;6.67;88.96;98269.91;5416862;26;20004;-63
2024/04/17 01:15:14;;;;;;;0.65;0.65;;;;;;;6.68;89.32;98281.75;5418564;26;20011;-63
2024/04/17 01:17:44;;;;;;;0.63;0.63;;;;;;;6.65;89.25;98279.22;5418302;26;20024;-63
2024/04/17 01:20:12;;;;;;;0.68;0.52;;;;;;;6.69;89.26;98273.28;5418417;26;20040;-63
2024/04/17 01:22:43;;;;;;;1.00;1.00;;;;;;;6.75;89.46;98263.09;5418142;26;20415;-63
2024/04/17 01:25:13;;;;;;;0.85;0.75;;;;;;;6.74;89.35;98256.34;5418236;26;20007;-63
2024/04/17 01:27:44;;;;;;;0.57;0.38;;;;;;;6.71;89.18;98266.53;5418429;26;20011;-63
2024/04/17 01:30:12;;;;;;;1.13;1.02;;;;;;;6.69;89.44;98272.44;5418142;26;20011;-63
2024/04/17 01:32:45;;;;;;;0.30;0.30;;;;;;;6.71;89.37;98263.13;5418016;26;19999;-63
2024/04/17 01:35:13;;;;;;;0.55;0.55;;;;;;;6.67;89.25;98261.50;5415751;26;20011;-63
2024/04/17 01:37:44;;;;;;;0.65;0.65;;;;;;;6.63;89.51;98259.81;5417873;26;20003;-63
2024/04/17 01:40:14;;;;;;;0.47;0.47;;;;;;;6.61;89.26;98259.84;5418015;26;20048;-63
2024/04/17 01:42:45;;;;;;;0.38;0.38;;;;;;;6.62;89.10;98261.50;5418197;26;19999;-63
2024/04/17 01:45:13;;;;;;;0.32;0.32;;;;;;;6.62;89.34;98266.56;5418516;26;20003;-63
2024/04/17 01:47:44;;;;;;;0.30;0.30;;;;;;;6.62;89.89;98274.19;5417709;26;19999;-63
2024/04/17 01:50:12;;;;;;;0.50;0.50;;;;;;;6.58;89.71;98270.00;5418291;26;20003;-64
2024/04/17 01:52:43;;;;;;;0.77;0.77;;;;;;;6.53;89.20;98279.31;5417682;26;20011;-64
2024/04/17 01:55:11;;;;;;;0.43;0.43;;;;;;;6.49;89.53;98275.13;5418090;26;19995;-63
2024/04/17 01:57:44;;;;;;;0.25;0.25;;;;;;;6.46;89.76;98269.22;5417585;26;20015;-63
2024/04/17 02:00:12;;;;;;;0.40;0.40;;;;;;;6.47;90.10;98281.06;5417700;26;20076;-64
2024/04/17 02:02:43;;;;;;;0.40;0.40;;;;;;;6.42;89.72;98268.44;5417611;26;19999;-63
2024/04/17 02:05:11;;;;;;;0.55;0.55;;;;;;;6.42;89.66;98277.72;5417568;26;20007;-63
2024/04/17 02:07:41;;;;;;;0.50;0.50;;;;;;;6.42;89.96;98281.09;5417410;26;20008;-63
2024/04/17 02:10:09;;;;;;;4.22;0.65;;;;;;;6.31;90.03;98260.03;5416159;26;20003;-64
2024/04/17 02:12:40;;;;;;;0.28;0.28;;;;;;;6.39;90.11;98293.78;5417213;26;20015;-63
2024/04/17 02:15:10;;;;;;;0.50;0.50;;;;;;;6.36;90.55;98293.78;5417415;26;19999;-64
2024/04/17 02:17:41;;;;;;;0.75;0.73;;;;;;;6.38;90.53;98287.03;5417588;26;20000;-63
2024/04/17 02:20:12;;;;;;;0.60;0.60;;;;;;;6.36;90.23;98293.78;5417281;26;20015;-63
2024/04/17 02:22:40;;;;;;;0.50;0.50;;;;;;;6.35;90.83;98292.13;5417681;26;20031;-63
2024/04/17 02:25:10;;;;;;;0.25;0.25;;;;;;;6.37;91.16;98280.28;5415533;26;20446;-63
2024/04/17 02:27:38;;;;;;;0.30;0.30;;;;;;;6.44;91.01;98281.94;5417103;26;20010;-64
2024/04/17 02:30:10;;;;;;;0.30;0.30;;;;;;;6.33;91.12;98268.50;5417057;26;20031;-64
2024/04/17 02:32:40;;;;;;;1.30;0.73;;;;;;;6.27;90.78;98253.31;5416946;26;20000;-64
2024/04/17 02:35:11;;;;;;;0.40;0.40;;;;;;;6.34;90.67;98269.31;5417009;26;20011;-64
2024/04/17 02:37:39;;;;;;;0.50;0.50;;;;;;;6.32;91.27;98269.34;5417168;26;20020;-63
2024/04/17 02:40:12;;;;;;;0.40;0.40;;;;;;;6.31;91.11;98271.91;5416772;26;20000;-64
2024/04/17 02:42:40;;;;;;;0.32;0.32;;;;;;;6.29;90.84;98261.75;5416851;26;20349;-64
2024/04/17 02:45:10;;;;;;;0.85;0.85;;;;;;;6.28;91.05;98267.69;5417035;26;20000;-64
2024/04/17 02:47:41;;;;;;;1.00;0.82;;;;;;;6.33;91.64;98263.44;5386159;26;19999;-63
2024/04/17 02:50:11;;;;;;;1.23;0.90;;;;;;;6.33;91.13;98263.44;5420508;26;20004;-63
2024/04/17 02:52:39;;;;;;;0.80;0.80;;;;;;;6.31;91.29;98262.59;5418899;26;20011;-64
2024/04/17 02:55:10;;;;;;;0.52;0.52;;;;;;;6.36;91.34;98258.31;5418589;26;20003;-64
2024/04/17 02:57:38;;;;;;;1.20;1.00;;;;;;;6.37;91.62;98264.25;5420466;26;19999;-64
2024/04/17 03:00:10;;;;;;;0.40;0.40;;;;;;;6.41;91.68;98271.81;5420191;26;19999;-64
2024/04/17 03:02:41;;;;;;;0.85;0.85;;;;;;;6.45;91.59;98267.56;5420640;26;20004;-64
2024/04/17 03:05:11;;;;;;;3.22;1.35;;;;;;;6.36;91.78;98268.47;5420159;26;20487;-63
2024/04/17 03:07:40;;;;;;;0.52;0.52;;;;;;;6.29;91.46;98271.03;5418783;26;20011;-63
2024/04/17 03:10:10;;;;;;;1.35;1.25;;;;;;;6.23;91.58;98266.88;5420033;26;20356;-64
2024/04/17 03:12:41;;;;;;;1.40;1.17;;;;;;;6.18;91.59;98267.75;5420121;26;20076;-63
2024/04/17 03:15:12;;;;;;;0.50;0.50;;;;;;;6.18;91.98;98266.06;5420070;26;20072;-64
2024/04/17 03:17:48;;;;;;;0.50;0.50;;;;;;;6.13;92.17;98260.19;5420129;26;19999;-63
2024/04/17 03:20:16;;;;;;;1.75;0.98;;;;;;;6.13;92.14;98264.41;5420358;26;20019;-64
2024/04/17 03:22:46;;;;;;;0.93;0.90;;;;;;;6.12;91.96;98263.53;5420059;26;20039;-63
2024/04/17 03:25:14;;;;;;;0.85;0.82;;;;;;;6.13;92.12;98264.41;5417969;26;20068;-64
2024/04/17 03:27:45;;;;;;;0.32;0.32;;;;;;;6.15;92.28;98267.75;5434616;26;20003;-64
2024/04/17 03:30:13;;;;;;;0.73;0.73;;;;;;;6.13;91.99;98260.19;5454069;26;20085;-63
2024/04/17 03:32:46;;;;;;;2.70;1.67;;;;;;;6.12;92.27;98253.41;5454173;26;20018;-63
2024/04/17 03:35:15;;;;;;;0.70;0.70;;;;;;;6.22;92.21;98265.19;5456127;26;20017;-64
2024/04/17 03:37:45;;;;;;;2.05;1.73;;;;;;;6.23;92.12;98260.97;5455648;26;20455;-64
2024/04/17 03:40:16;;;;;;;1.05;1.02;;;;;;;6.15;92.15;98268.59;5455875;26;20039;-64
2024/04/17 03:42:47;;;;;;;0.40;0.40;;;;;;;6.09;92.14;98258.53;5455722;26;20034;-64
2024/04/17 03:45:18;;;;;;;0.95;0.80;;;;;;;6.12;92.19;98261.00;5453599;26;20007;-64
2024/04/17 03:47:52;;;;;;;0.80;0.80;;;;;;;6.09;92.43;98258.53;5455604;26;20448;-64
2024/04/17 03:50:20;;;;;;;0.20;0.20;;;;;;;6.02;92.23;98267.81;5455812;26;20002;-64
2024/04/17 03:52:50;;;;;;;0.80;0.80;;;;;;;6.00;92.62;98271.22;5455396;26;20002;-64
2024/04/17 03:55:18;;;;;;;0.40;0.40;;;;;;;6.02;92.88;98267.81;5455515;26;20313;-64
2024/04/17 03:57:49;;;;;;;1.15;0.70;;;;;;;6.00;92.69;98276.28;5455365;26;19998;-64
2024/04/17 04:00:17;;;;;;;0.75;0.75;;;;;;;6.00;92.31;98283.88;5453099;26;20399;-64
2024/04/17 04:02:47;;;;;;;0.30;0.30;;;;;;;5.99;92.81;98277.16;5455520;26;20042;-63
2024/04/17 04:05:19;;;;;;;0.20;0.20;;;;;;;5.93;92.35;98278.00;5455387;26;20349;-64
2024/04/17 04:07:50;;;;;;;0.70;0.65;;;;;;;5.95;92.95;98275.50;5455389;26;20006;-64
2024/04/17 04:10:18;;;;;;;0.77;0.77;;;;;;;5.97;92.69;98277.13;5455642;26;20017;-64
2024/04/17 04:12:48;;;;;;;0.90;0.85;;;;;;;6.01;92.98;98270.38;5455179;26;20007;-64
2024/04/17 04:15:17;;;;;;;3.92;0.93;;;;;;;6.06;93.26;98283.84;5453820;26;20005;-64
2024/04/17 04:17:48;;;;;;;0.30;0.30;;;;;;;6.05;93.28;98272.03;5453427;26;20363;-63
2024/04/17 04:20:19;;;;;;;0.65;0.65;;;;;;;6.10;93.19;98265.25;5455626;26;20002;-64
2024/04/17 04:22:50;;;;;;;0.73;0.70;;;;;;;6.14;92.91;98256.81;5453433;26;19999;-64
2024/04/17 04:25:17;;;;;;;0.95;0.95;;;;;;;6.21;93.32;98258.44;5454967;26;20003;-64
2024/04/17 04:27:48;;;;;;;0.38;0.38;;;;;;;6.26;93.31;98271.94;5454833;26;20345;-64
2024/04/17 04:30:16;;;;;;;2.28;1.45;;;;;;;6.30;93.19;98268.50;5455331;26;20011;-64
2024/04/17 04:32:52;;;;;;;1.02;0.82;;;;;;;6.38;93.03;98274.34;5454494;26;20330;-63
2024/04/17 04:35:22;;;;;;;4.15;1.77;;;;;;;6.49;93.24;98275.13;5454950;26;20013;-63
2024/04/17 04:37:53;;;;;;;4.18;1.58;;;;;;;6.50;92.76;98278.53;5454899;26;20071;-63
2024/04/17 04:40:21;;;;;;;0.60;0.60;;;;;;;6.43;93.00;98275.16;5454810;26;20013;-64
2024/04/17 04:42:54;;;;;;;0.98;0.82;;;;;;;6.43;93.11;98282.75;5454984;26;20018;-64
2024/04/17 04:45:22;;;;;;;0.65;0.65;;;;;;;6.42;93.10;98287.84;5454640;26;20010;-63
2024/04/17 04:47:53;;;;;;;0.65;0.65;;;;;;;6.39;92.71;98293.78;5454706;26;20071;-64
2024/04/17 04:50:23;;;;;;;0.77;0.77;;;;;;;6.39;92.29;98288.72;5454895;26;19999;-63
2024/04/17 04:52:55;;;;;;;2.85;1.30;;;;;;;6.37;92.51;98290.41;5452721;26;20110;-64
2024/04/17 04:55:23;;;;;;;0.63;0.63;;;;;;;6.35;92.49;98302.25;5454791;26;20015;-63
2024/04/17 04:57:53;;;;;;;0.80;0.80;;;;;;;6.38;92.42;98292.09;5452673;26;20094;-64
2024/04/17 05:00:21;;;;;;;0.40;0.40;;;;;;;6.37;92.37;98300.56;5454544;26;20007;-63
2024/04/17 05:02:52;;;;;;;1.88;1.15;;;;;;;6.31;92.25;98297.22;5454063;26;20075;-63
2024/04/17 05:05:19;;;;;;;1.00;1.00;;;;;;;6.30;92.46;98290.47;5454748;26;20029;-64
2024/04/17 05:07:53;;;;;;;0.45;0.40;;;;;;;6.35;92.33;98297.19;5454378;26;20030;-64
2024/04/17 05:10:21;;;;;;;6.72;1.13;;;;;;;6.41;92.65;98294.59;5453198;26;20352;-64
2024/04/17 05:12:51;;;;;;;2.30;1.23;;;;;;;6.42;92.57;98288.69;5454533;26;20010;-64
2024/04/17 05:15:19;;;;;;;1.58;1.48;;;;;;;6.41;92.19;98289.53;5454186;26;20340;-63
2024/04/17 05:17:50;;;;;;;1.48;1.15;;;;;;;6.42;92.81;98292.91;5454203;26;20097;-63
2024/04/17 05:20:17;;;;;;;0.30;0.30;;;;;;;6.42;92.66;98288.69;5454111;26;20030;-64
2024/04/17 05:22:48;;;;;;;1.20;1.10;;;;;;;6.46;92.83;98290.34;5452589;26;20007;-63
2024/04/17 05:25:19;;;;;;;2.85;2.35;;;;;;;6.51;92.81;98293.69;5453837;26;20465;-64
2024/04/17 05:27:50;;;;;;;1.52;1.30;;;;;;;6.59;92.84;98296.19;5454362;26;19999;-64
2024/04/17 05:30:18;;;;;;;0.70;0.70;;;;;;;6.60;92.71;98293.63;5454142;26;20039;-63
2024/04/17 05:32:49;;;;;;;1.02;0.93;;;;;;;6.67;92.86;98295.25;5453859;26;20341;-64
2024/04/17 05:35:17;;;;;;;0.88;0.82;;;;;;;6.68;92.71;98294.41;5454135;26;20038;-63
2024/04/17 05:37:48;;;;;;;0.60;0.60;;;;;;;6.73;92.79;98292.69;5454239;26;20014;-63
2024/04/17 05:40:18;;;;;;;0.70;0.50;;;;;;;6.67;92.54;98290.19;5453812;26;19999;-64
2024/04/17 05:42:49;;;;;;;1.35;1.20;;;;;;;6.68;92.60;98296.97;5454481;26;20064;-64
2024/04/17 05:45:17;;;;;;;0.47;0.47;;;;;;;6.70;92.73;98295.25;5453603;26;20003;-64
2024/04/17 05:47:48;;;;;;;1.42;1.33;;;;;;;6.74;92.32;98301.97;5453356;26;20071;-64
2024/04/17 05:50:16;;;;;;;0.70;0.70;;;;;;;6.77;92.48;98296.03;5452346;26;20039;-64
2024/04/17 05:52:46;;;;;;;0.68;0.68;;;;;;;6.80;92.57;98300.22;5453875;26;19999;-64
2024/04/17 05:55:15;;;;;;;0.47;0.47;;;;;;;6.85;92.63;98304.44;5453517;26;20334;-64
2024/04/17 05:57:48;;;;;;;1.13;0.93;;;;;;;6.86;92.65;98290.06;5453573;26;19999;-64
2024/04/17 06:00:17;;;;;;;1.02;1.02;;;;;;;6.93;92.50;98301.84;5453479;26;19999;-64
2024/04/17 06:02:48;;;;;;;0.80;0.80;;;;;;;6.90;92.44;98276.50;5453780;26;19998;-64
2024/04/17 06:05:16;;;;;;;2.45;1.40;;;;;;;7.00;92.40;98289.09;5439458;26;19999;-64
2024/04/17 06:07:46;;;;;;;0.55;0.52;;;;;;;7.14;92.37;98297.41;5417282;26;20049;-64
2024/04/17 06:10:14;;;;;;;1.50;0.90;;;;;;;7.22;92.43;98295.63;5415880;26;19999;-64
2024/04/17 06:12:48;;;;;;;2.17;1.50;;;;;;;7.30;92.36;98298.94;5417521;26;20442;-64
2024/04/17 06:15:16;;;;;;;0.73;0.70;;;;;;;7.41;92.55;98301.38;5417666;26;20035;-63
2024/04/17 06:17:46;;;;;;;0.35;0.35;;;;;;;7.50;91.81;98295.34;5417637;26;20011;-64
2024/04/17 06:20:14;;;;;;;2.28;2.08;;;;;;;7.63;92.12;98287.56;5417226;26;20010;-64
2024/04/17 06:22:48;;;;;;;1.00;0.95;;;;;;;7.77;92.39;98292.50;5419381;26;20004;-64
2024/04/17 06:25:16;;;;;;;0.88;0.82;;;;;;;7.85;91.84;98294.06;5419537;26;20003;-64
2024/04/17 06:27:49;;;;;;;0.70;0.63;;;;;;;7.92;91.87;98295.69;5420722;26;20080;-64
2024/04/17 06:30:20;;;;;;;0.52;0.52;;;;;;;8.01;91.26;98289.66;5420728;26;20035;-64
2024/04/17 06:32:48;;;;;;;0.88;0.88;;;;;;;7.90;90.77;98292.31;5420150;26;20047;-64
2024/04/17 06:35:19;;;;;;;0.30;0.30;;;;;;;8.04;90.38;98298.06;5418811;26;20000;-64
2024/04/17 06:37:46;;;;;;;0.73;0.65;;;;;;;8.13;90.31;98295.38;5420554;26;20000;-64
2024/04/17 06:40:17;;;;;;;0.38;0.38;;;;;;;8.21;89.80;98292.75;5389220;26;19999;-64
2024/04/17 06:42:48;;;;;;;0.57;0.57;;;;;;;8.41;89.69;98289.97;5420598;26;20003;-64
2024/04/17 06:45:18;;;;;;;2.42;0.60;;;;;;;8.72;89.30;98296.28;5418829;26;20000;-64
2024/04/17 06:47:46;;;;;;;2.30;0.82;;;;;;;8.82;88.72;98291.88;5420485;26;20076;-64
2024/04/17 06:50:17;;;;;;;0.85;0.85;;;;;;;8.89;87.97;98294.31;5418682;26;20035;-64
2024/04/17 06:52:45;;;;;;;1.20;0.55;;;;;;;9.07;87.94;98299.06;5420383;26;20493;-64
2024/04/17 06:55:15;;;;;;;0.32;0.32;;;;;;;9.14;86.84;98298.09;5420418;26;20013;-64
2024/04/17 06:57:44;;;;;;;0.57;0.57;;;;;;;9.21;86.15;98297.13;5418468;26;20018;-64
2024/04/17 07:00:18;;;;;;;0.90;0.85;;;;;;;9.06;84.83;98271.13;5418282;26;20008;-63
2024/04/17 07:02:46;;;;;;;0.45;0.45;;;;;;;9.24;83.90;98302.16;5418348;26;20000;-64
2024/04/17 07:05:28;;;;;;;0.30;0.30;;;;;;;9.34;83.09;98300.28;5418535;26;20370;-64
2024/04/17 07:07:56;;;;;;;0.32;0.32;;;;;;;9.36;82.46;98304.50;5420140;26;19999;-64
2024/04/17 07:10:26;;;;;;;0.55;0.55;;;;;;;9.52;81.72;98302.53;5420072;26;20089;-64
2024/04/17 07:12:55;;;;;;;0.52;0.52;;;;;;;9.76;81.71;98296.09;5419930;26;20076;-65
2024/04/17 07:15:28;;;;;;;0.70;0.70;;;;;;;9.88;80.95;98298.41;5419956;26;20003;-64
2024/04/17 07:17:56;;;;;;;0.40;0.40;;;;;;;9.93;80.48;98304.25;5418315;26;20452;-64
2024/04/17 07:20:27;;;;;;;0.60;0.60;;;;;;;9.91;79.96;98306.00;5420059;26;20464;-64
2024/04/17 07:22:55;;;;;;;0.40;0.40;;;;;;;9.67;79.02;98275.91;5450000;26;20333;-65
2024/04/17 07:25:27;;;;;;;0.73;0.73;;;;;;;9.78;78.53;98304.56;5455934;26;20468;-65
2024/04/17 07:27:54;;;;;;;0.90;0.90;;;;;;;9.73;78.14;98301.25;5456102;26;20009;-65
2024/04/17 07:30:28;;;;;;;0.88;0.85;;;;;;;9.68;78.04;98318.34;5455763;26;20467;-65
2024/04/17 07:32:55;;;;;;;0.73;0.70;;;;;;;9.59;78.02;98305.78;5455190;26;20006;-64
2024/04/17 07:35:26;;;;;;;3.22;1.33;;;;;;;9.53;77.91;98309.28;5455350;26;20023;-65
2024/04/17 07:37:54;;;;;;;0.75;0.75;;;;;;;9.49;77.64;98306.81;5455719;26;20002;-65
2024/04/17 07:40:24;;;;;;;0.52;0.52;;;;;;;9.42;77.33;98312.03;5455976;26;19998;-65
2024/04/17 07:42:52;;;;;;;0.47;0.47;;;;;;;9.53;76.99;98311.81;5455628;26;20014;-65
2024/04/17 07:45:23;;;;;;;0.60;0.60;;;;;;;9.49;76.46;98304.25;5455858;26;20508;-65
2024/04/17 07:47:56;;;;;;;0.40;0.40;;;;;;;9.44;75.90;98310.28;5423569;26;20010;-64
2024/04/17 07:50:39;;;;;;;1.80;1.48;;;;;;;9.33;75.38;98322.34;5455742;26;20322;-65
2024/04/17 07:53:09;;;;;;;0.40;0.40;;;;;;;9.24;75.41;98311.50;5455907;26;20002;-64
2024/04/17 07:55:39;;;;;;;0.85;0.85;;;;;;;9.27;75.44;98321.63;5455250;26;20014;-65
2024/04/17 07:58:08;;;;;;;1.20;1.10;;;;;;;9.18;75.44;98317.56;5455873;26;20014;-64
2024/04/17 08:00:39;;;;;;;0.70;0.70;;;;;;;9.22;75.44;98324.25;5455323;26;20006;-64
2024/04/17 08:03:11;;;;;;;0.40;0.40;;;;;;;9.35;75.55;98319.81;5455684;26;20011;-64
2024/04/17 08:05:45;;;;;;;0.93;0.90;;;;;;;9.49;75.74;98317.84;5455533;26;19999;-64
2024/04/17 08:08:13;;;;;;;1.05;0.95;;;;;;;9.53;75.35;98323.72;5453522;26;20013;-64
2024/04/17 08:10:44;;;;;;;0.60;0.60;;;;;;;9.60;75.21;98325.31;5455489;26;20007;-64
2024/04/17 08:13:12;;;;;;;0.63;0.60;;;;;;;9.70;75.12;98321.69;5455169;26;20349;-64
2024/04/17 08:15:43;;;;;;;0.30;0.30;;;;;;;9.81;74.60;98324.88;5455380;26;20468;-64
2024/04/17 08:18:14;;;;;;;0.75;0.75;;;;;;;9.83;73.80;98323.13;5455133;26;20003;-64
2024/04/17 08:20:45;;;;;;;1.30;1.20;;;;;;;9.99;73.79;98332.16;5453793;26;20003;-64
2024/04/17 08:23:13;;;;;;;1.02;0.93;;;;;;;9.87;73.55;98315.41;5455514;26;20444;-64
2024/04/17 08:25:44;;;;;;;0.55;0.55;;;;;;;9.80;73.14;98324.03;5455206;26;19999;-64
2024/04/17 08:28:12;;;;;;;1.23;1.13;;;;;;;9.82;73.34;98332.50;5454880;26;20007;-64
2024/04/17 08:30:42;;;;;;;0.40;0.40;;;;;;;9.79;73.06;98334.28;5454941;26;20018;-64
2024/04/17 08:33:13;;;;;;;1.60;0.98;;;;;;;9.80;72.95;98328.28;5454879;26;20456;-64
2024/04/17 08:35:44;;;;;;;1.23;0.85;;;;;;;9.94;73.28;98326.31;5455031;26;20456;-64
2024/04/17 08:38:12;;;;;;;0.55;0.55;;;;;;;9.99;73.08;98332.16;5483521;26;20010;-64
2024/04/17 08:40:43;;;;;;;0.60;0.60;;;;;;;10.14;73.03;98329.34;5454601;26;20006;-65
2024/04/17 08:43:24;;;;;;;1.48;0.75;;;;;;;10.19;72.84;98334.34;5454749;26;20080;-65
2024/04/17 08:45:56;;;;;;;1.42;1.33;;;;;;;10.22;72.71;98332.53;5453074;26;20011;-64
2024/04/17 08:48:28;;;;;;;1.17;1.08;;;;;;;10.34;72.57;98337.38;5454981;26;20031;-64
2024/04/17 08:51:01;;;;;;;1.20;1.10;;;;;;;10.41;72.27;98338.13;5454950;26;19998;-64
2024/04/17 08:53:30;;;;;;;0.43;0.43;;;;;;;10.50;72.41;98338.75;5454521;26;20011;-64
2024/04/17 08:56:00;;;;;;;0.82;0.82;;;;;;;10.61;71.99;98344.44;5454810;26;20393;-64
2024/04/17 08:58:29;;;;;;;0.40;0.40;;;;;;;10.66;71.13;98340.06;5454781;26;20072;-65
2024/04/17 09:01:03;;;;;;;0.40;0.40;;;;;;;10.81;70.67;98338.03;5443970;26;19999;-64
2024/04/17 09:03:39;;;;;;;0.75;0.73;;;;;;;10.62;69.73;98279.81;5418561;26;19999;-65
2024/04/17 09:06:11;;;;;;;0.50;0.50;;;;;;;11.07;69.03;98338.25;5418582;26;20010;-64
2024/04/17 09:08:41;;;;;;;0.45;0.45;;;;;;;11.28;68.55;98330.91;5416804;26;20024;-63
2024/04/17 09:11:13;;;;;;;0.47;0.47;;;;;;;11.57;67.82;98321.66;5416949;26;20011;-64
2024/04/17 09:13:41;;;;;;;5.38;1.85;;;;;;;11.76;66.64;98318.59;5416787;26;20073;-65
2024/04/17 09:16:11;;;;;;;0.60;0.60;;;;;;;11.95;66.92;98314.66;5418419;26;20000;-64
2024/04/17 09:18:42;;;;;;;0.75;0.75;;;;;;;12.24;66.14;98320.66;5416720;26;20000;-64
2024/04/17 09:21:13;;;;;;;0.52;0.52;;;;;;;12.30;65.66;98315.34;5446652;26;20329;-65
2024/04/17 09:23:41;;;;;;;0.40;0.40;;;;;;;12.14;64.91;98321.81;5418246;26;20118;-64
2024/04/17 09:26:16;;;;;;;0.47;0.47;;;;;;;12.44;64.97;98318.34;5446662;26;20000;-66
2024/04/17 09:28:44;;;;;;;0.43;0.43;;;;;;;12.72;64.46;98298.69;5418043;26;20011;-64
2024/04/17 09:31:14;;;;;;;0.45;0.45;;;;;;;13.19;64.25;98305.72;5418304;26;20023;-65
2024/04/17 09:33:45;;;;;;;0.88;0.80;;;;;;;13.61;63.08;98323.91;5418192;26;20068;-64
2024/04/17 09:36:17;;;;;;;0.32;0.32;;;;;;;13.97;62.60;98325.19;5418221;26;20007;-64
2024/04/17 09:38:45;;;;;;;0.40;0.40;;;;;;;14.01;61.27;98323.34;5418647;26;20011;-64
2024/04/17 09:41:15;;;;;;;0.38;0.38;;;;;;;13.84;60.41;98323.13;5418232;26;20534;-64
2024/04/17 09:43:47;;;;;;;0.43;0.43;;;;;;;13.49;60.41;98313.22;5418006;26;20015;-65
2024/04/17 09:46:18;;;;;;;0.40;0.40;;;;;;;13.57;60.03;98322.34;5417863;26;20057;-65
2024/04/17 09:48:49;;;;;;;2.95;1.38;;;;;;;13.66;59.42;98310.91;5417820;26;20464;-64
2024/04/17 09:51:23;;;;;;;0.50;0.50;;;;;;;13.92;60.17;98309.09;5418209;26;20457;-64
2024/04/17 09:53:56;;;;;;;0.40;0.40;;;;;;;14.24;60.34;98304.53;5417808;26;20012;-66
2024/04/17 09:56:28;;;;;;;0.28;0.28;;;;;;;14.34;59.81;98304.16;5418242;26;20000;-63
2024/04/17 09:58:58;;;;;;;0.30;0.30;;;;;;;14.43;58.83;98306.38;5421142;26;20457;-64
2024/04/17 10:01:39;;;;;;;0.30;0.30;;;;;;;14.23;58.36;98305.44;5421333;26;20019;-64
2024/04/17 10:04:16;;;;;;;0.93;0.93;;;;;;;13.87;57.45;98303.31;5419286;26;20007;-64
2024/04/17 10:06:48;;;;;;;1.25;1.17;;;;;;;13.39;56.83;98303.31;5421115;26;20333;-66
2024/04/17 10:09:24;;;;;;;0.50;0.50;;;;;;;12.72;57.13;98296.13;5421549;26;20007;-67
2024/04/17 10:11:52;;;;;;;0.40;0.40;;;;;;;12.50;57.60;98302.81;5421012;26;20010;-65
2024/04/17 10:14:25;;;;;;;0.40;0.40;;;;;;;12.71;57.31;98309.81;5420977;26;20015;-64
2024/04/17 10:16:53;;;;;;;0.30;0.30;;;;;;;12.97;57.28;98307.25;5420918;26;20237;-64
2024/04/17 10:19:26;;;;;;;0.30;0.30;;;;;;;12.87;55.71;98312.72;5421099;26;20036;-65
2024/04/17 10:21:57;;;;;;;0.45;0.45;;;;;;;12.81;55.67;98303.53;5421323;26;20011;-64
2024/04/17 10:24:25;;;;;;;0.43;0.43;;;;;;;12.75;55.50;98303.72;5420922;26;20006;-64
2024/04/17 10:26:57;;;;;;;0.30;0.30;;;;;;;12.71;55.00;98295.31;5420622;26;20068;-66
2024/04/17 10:29:26;;;;;;;0.30;0.30;;;;;;;12.65;53.84;98299.75;5420964;26;20000;-66
2024/04/17 10:32:01;;;;;;;0.50;0.50;;;;;;;12.43;51.89;98273.19;5438879;26;20002;-66
2024/04/17 10:34:43;;;;;;;0.43;0.43;;;;;;;12.64;52.56;98295.53;5439646;26;20011;-66
2024/04/17 10:37:14;;;;;;;0.40;0.40;;;;;;;12.62;52.05;98287.09;5439761;26;20052;-65
2024/04/17 10:39:45;;;;;;;0.50;0.50;;;;;;;13.08;53.34;98291.56;5438668;26;20004;-65
2024/04/17 10:42:19;;;;;;;0.30;0.30;;;;;;;13.47;52.08;98268.88;5437432;26;20003;-66
2024/04/17 10:44:49;;;;;;;0.40;0.40;;;;;;;14.03;51.52;98285.66;5424179;26;20879;-66
2024/04/17 10:47:23;;;;;;;0.80;0.80;;;;;;;13.84;49.28;98238.47;5445953;26;20002;-65
2024/04/17 10:49:58;;;;;;;0.50;0.50;;;;;;;14.25;47.35;98283.97;5456261;26;20053;-67
2024/04/17 10:52:30;;;;;;;0.50;0.50;;;;;;;14.04;46.65;98277.88;5454581;26;20046;-64
2024/04/17 10:55:00;;;;;;;0.90;0.77;;;;;;;14.34;46.85;98286.19;5454526;26;19999;-66
2024/04/17 10:57:33;;;;;;;0.40;0.40;;;;;;;14.46;46.26;98275.47;5454451;26;20398;-67
2024/04/17 11:00:01;;;;;;;0.32;0.32;;;;;;;14.55;45.37;98285.38;5456246;26;20010;-67
2024/04/17 11:02:33;;;;;;;0.50;0.50;;;;;;;14.41;45.83;98277.38;5456236;26;20014;-65
2024/04/17 11:05:05;;;;;;;0.77;0.77;;;;;;;14.49;46.55;98290.72;5454625;26;19999;-67
2024/04/17 11:07:36;;;;;;;0.30;0.30;;;;;;;14.31;46.69;98281.19;5454157;26;20325;-66
2024/04/17 11:10:13;;;;;;;0.40;0.40;;;;;;;13.85;47.20;98269.19;5453274;26;20489;-65
2024/04/17 11:12:41;;;;;;;0.75;0.75;;;;;;;13.84;49.61;98282.09;5456368;26;20015;-64
2024/04/17 11:15:12;;;;;;;0.52;0.52;;;;;;;13.83;49.99;98273.53;5456212;26;19999;-66
2024/04/17 11:17:40;;;;;;;0.40;0.40;;;;;;;13.59;49.14;98283.84;5454321;26;19999;-65
2024/04/17 11:20:15;;;;;;;0.40;0.40;;;;;;;13.51;50.66;98265.34;5454451;26;20003;-66
2024/04/17 11:22:44;;;;;;;0.95;0.60;;;;;;;13.63;50.25;98280.28;5456680;26;20041;-66
2024/04/17 11:25:16;;;;;;;0.50;0.50;;;;;;;13.80;51.34;98275.38;5455948;26;19999;-66
2024/04/17 11:27:44;;;;;;;0.50;0.50;;;;;;;14.05;52.95;98283.84;5456034;26;20100;-65
2024/04/17 11:30:19;;;;;;;0.50;0.50;;;;;;;14.52;52.97;98290.63;5453914;26;20011;-66
2024/04/17 11:32:47;;;;;;;25.52;1.10;;;;;;;14.81;51.22;98291.19;5455827;26;20074;-66
2024/04/17 11:35:21;;;;;;;0.40;0.40;;;;;;;15.04;50.80;98285.97;5454316;26;20009;-65
2024/04/17 11:37:50;;;;;;;0.77;0.75;;;;;;;14.95;50.62;98283.78;5453877;26;20410;-65
2024/04/17 11:40:21;;;;;;;0.40;0.40;;;;;;;14.93;51.59;98290.69;5456087;26;19998;-65
2024/04/17 11:42:50;;;;;;;0.52;0.52;;;;;;;15.02;51.85;98290.34;5455740;26;20013;-65
2024/04/17 11:45:21;;;;;;;0.40;0.40;;;;;;;14.80;50.48;98294.66;5454202;26;20030;-67
2024/04/17 11:47:49;;;;;;;0.60;0.60;;;;;;;14.43;52.08;98296.09;5455703;26;20003;-66
2024/04/17 11:50:23;;;;;;;0.55;0.52;;;;;;;14.20;52.50;98291.00;5454066;26;20014;-65
2024/04/17 11:52:51;;;;;;;0.47;0.47;;;;;;;13.98;53.18;98296.06;5455596;26;20079;-65